Time;durP1;ratioP1;P1;durP2;ratioP2;P2;SDS_P1;SDS_P2;PMS_P1;PMS_P2;Temp;Humidity;BMP_temperature;BMP_pressure;BME280_temperature;BME280_humidity;BME280_pressure;Samples;Min_cycle;Max_cycle;Signal;HPM_P1;HPM_P2
2024/03/08 00:00:18;;;;;;;25.92;9.95;;;3.20;99.90;;;;;;5037689;28;20105;-77
2024/03/08 00:02:45;;;;;;;29.42;10.43;;;3.20;99.90;;;;;;5036728;28;20032;-77
2024/03/08 00:05:12;;;;;;;35.03;10.65;;;3.20;99.90;;;;;;5036926;28;20021;-77
2024/03/08 00:07:38;;;;;;;27.00;9.45;;;3.20;99.90;;;;;;5036056;28;20041;-77
2024/03/08 00:10:06;;;;;;;27.50;8.77;;;3.20;99.90;;;;;;5035941;28;20028;-77
2024/03/08 00:12:31;;;;;;;24.58;8.80;;;3.10;99.90;;;;;;5035094;28;20025;-77
2024/03/08 00:14:57;;;;;;;27.73;10.63;;;3.10;99.90;;;;;;5035932;28;20029;-77
2024/03/08 00:17:22;;;;;;;21.92;9.40;;;3.10;99.90;;;;;;5035423;28;20027;-77
2024/03/08 00:19:51;;;;;;;30.92;9.93;;;3.00;99.90;;;;;;5036134;28;20075;-77
2024/03/08 00:22:17;;;;;;;24.73;10.07;;;3.00;99.90;;;;;;5035013;28;20503;-77
2024/03/08 00:24:43;;;;;;;24.88;9.73;;;3.00;99.90;;;;;;5035410;28;20116;-77
2024/03/08 00:27:09;;;;;;;28.30;9.63;;;3.00;99.90;;;;;;5035184;28;20024;-77
2024/03/08 00:29:35;;;;;;;25.67;9.77;;;2.90;99.90;;;;;;5037649;28;20022;-77
2024/03/08 00:32:01;;;;;;;27.98;10.30;;;3.00;99.90;;;;;;5038232;28;20048;-77
2024/03/08 00:34:26;;;;;;;24.20;9.77;;;2.90;99.90;;;;;;5037103;28;20030;-77
2024/03/08 00:36:52;;;;;;;28.98;9.95;;;2.90;99.90;;;;;;5038721;28;20052;-77
2024/03/08 00:39:21;;;;;;;29.20;11.30;;;2.90;99.90;;;;;;5036539;28;20028;-77
2024/03/08 00:41:47;;;;;;;24.27;9.25;;;2.90;99.90;;;;;;5036760;28;20028;-77
2024/03/08 00:44:13;;;;;;;25.73;9.70;;;2.90;99.90;;;;;;5036558;28;20107;-77
2024/03/08 00:46:38;;;;;;;27.60;10.02;;;2.90;99.90;;;;;;5036867;28;20405;-77
2024/03/08 00:49:04;;;;;;;28.85;10.45;;;2.90;99.90;;;;;;5036715;28;20064;-77
2024/03/08 00:51:30;;;;;;;26.08;9.48;;;2.80;99.90;;;;;;5037889;28;20056;-77
2024/03/08 00:53:55;;;;;;;23.08;9.13;;;2.80;99.90;;;;;;5035383;28;20087;-77
2024/03/08 00:56:21;;;;;;;26.00;9.07;;;2.80;99.90;;;;;;5035992;28;20116;-77
2024/03/08 00:58:46;;;;;;;25.25;9.40;;;2.80;99.90;;;;;;5035575;28;20018;-77
2024/03/08 01:01:15;;;;;;;25.55;9.20;;;2.80;99.90;;;;;;5036450;28;20164;-77
2024/03/08 01:03:43;;;;;;;28.27;9.45;;;2.70;99.90;;;;;;5036722;28;20025;-77
2024/03/08 01:06:09;;;;;;;27.55;9.45;;;3.70;99.90;;;;;;5036426;28;20026;-77
2024/03/08 01:08:38;;;;;;;28.42;11.60;;;2.70;99.90;;;;;;5035214;28;20028;-77
2024/03/08 01:11:04;;;;;;;27.70;9.13;;;2.70;99.90;;;;;;5036354;28;20433;-77
2024/03/08 01:13:30;;;;;;;27.23;8.98;;;2.70;99.90;;;;;;5036509;28;20025;-77
2024/03/08 01:15:56;;;;;;;28.48;10.90;;;2.70;99.90;;;;;;5035684;28;20033;-76
2024/03/08 01:18:22;;;;;;;27.63;9.38;;;2.60;99.90;;;;;;5035019;28;20021;-77
2024/03/08 01:20:47;;;;;;;27.13;8.60;;;2.60;99.90;;;;;;5035318;28;20014;-77
2024/03/08 01:23:13;;;;;;;27.23;10.13;;;2.60;99.90;;;;;;5036653;28;20036;-76
2024/03/08 01:25:41;;;;;;;21.60;9.05;;;2.50;99.90;;;;;;5035279;28;20051;-77
2024/03/08 01:28:07;;;;;;;27.38;9.63;;;;;;;;;;5035264;28;20022;-77
2024/03/08 01:30:34;;;;;;;23.45;9.95;;;2.50;99.90;;;;;;5036306;28;20048;-76
2024/03/08 01:33:00;;;;;;;28.80;10.13;;;2.50;99.90;;;;;;5034772;28;20025;-77
2024/03/08 01:35:27;;;;;;;26.15;9.95;;;2.50;99.90;;;;;;5034817;28;20075;-76
2024/03/08 01:37:53;;;;;;;32.28;11.60;;;2.50;99.90;;;;;;5035058;28;20029;-76
2024/03/08 01:40:18;;;;;;;25.58;9.98;;;2.40;99.90;;;;;;5035786;28;20025;-76
2024/03/08 01:42:44;;;;;;;26.88;10.25;;;2.40;99.90;;;;;;5036155;28;20063;-77
2024/03/08 01:45:10;;;;;;;28.05;9.60;;;2.40;99.90;;;;;;5036220;28;20037;-76
2024/03/08 01:47:37;;;;;;;23.00;9.93;;;2.30;99.90;;;;;;5036486;28;20033;-76
2024/03/08 01:50:03;;;;;;;27.27;9.75;;;2.30;99.90;;;;;;5036588;28;20057;-77
2024/03/08 01:52:34;;;;;;;25.73;9.57;;;2.30;99.90;;;;;;5034025;28;20026;-77
2024/03/08 01:55:03;;;;;;;26.45;9.32;;;2.20;99.90;;;;;;5033993;28;20388;-77
2024/03/08 01:57:30;;;;;;;;;;;2.20;99.90;;;;;;5037499;28;20014;-77
2024/03/08 01:59:56;;;;;;;25.90;9.57;;;2.20;99.90;;;;;;5035257;28;19944;-77
2024/03/08 02:02:22;;;;;;;29.33;10.48;;;2.20;99.90;;;;;;5034729;28;20026;-77
2024/03/08 02:04:48;;;;;;;23.33;9.30;;;2.20;99.90;;;;;;5035643;28;20021;-77
2024/03/08 02:07:14;;;;;;;27.50;10.32;;;2.10;99.90;;;;;;5034083;28;20035;-77
2024/03/08 02:09:39;;;;;;;26.65;9.23;;;2.10;99.90;;;;;;5036424;28;20481;-77
2024/03/08 02:12:06;;;;;;;26.88;9.45;;;2.10;99.90;;;;;;5034886;28;20080;-77
2024/03/08 02:14:32;;;;;;;24.75;9.20;;;2.10;99.90;;;;;;5034852;28;20040;-77
2024/03/08 02:17:01;;;;;;;25.52;9.63;;;2.00;99.90;;;;;;5035272;28;20021;-77
2024/03/08 02:19:27;;;;;;;24.92;10.40;;;2.00;99.90;;;;;;5034624;28;20025;-77
2024/03/08 02:21:53;;;;;;;29.73;10.48;;;1.90;99.90;;;;;;5033326;28;20013;-77
2024/03/08 02:24:19;;;;;;;28.58;11.23;;;2.00;99.90;;;;;;5035733;28;20036;-77
2024/03/08 02:26:44;;;;;;;27.50;11.20;;;2.00;99.90;;;;;;5035096;28;20389;-77
2024/03/08 02:29:10;;;;;;;27.30;10.30;;;1.90;99.90;;;;;;5035233;28;20065;-77
2024/03/08 02:31:39;;;;;;;26.65;10.77;;;2.00;99.90;;;;;;5034443;28;20456;-77
2024/03/08 02:34:05;;;;;;;26.15;9.48;;;2.00;99.90;;;;;;5035497;28;20069;-77
2024/03/08 02:36:34;;;;;;;31.42;10.82;;;1.90;99.90;;;;;;5037597;28;20022;-77
2024/03/08 02:39:02;;;;;;;26.17;10.40;;;2.00;99.90;;;;;;5038854;28;20116;-76
2024/03/08 02:41:28;;;;;;;27.75;10.88;;;1.90;99.90;;;;;;5039828;28;20017;-76
2024/03/08 02:43:55;;;;;;;25.38;10.18;;;1.90;99.90;;;;;;5038454;28;20087;-76
2024/03/08 02:46:20;;;;;;;26.98;9.77;;;1.90;99.90;;;;;;5039175;28;20021;-76
2024/03/08 02:48:46;;;;;;;27.63;9.93;;;1.90;99.90;;;;;;5039685;28;20505;-76
2024/03/08 02:51:13;;;;;;;27.33;9.98;;;1.90;99.90;;;;;;5038912;28;20029;-77
2024/03/08 02:53:39;;;;;;;27.85;10.30;;;1.80;99.90;;;;;;5037409;28;20028;-77
2024/03/08 02:56:08;;;;;;;29.08;10.38;;;1.80;99.90;;;;;;5038051;28;20026;-77
2024/03/08 02:58:33;;;;;;;24.40;10.25;;;1.80;99.90;;;;;;5038455;28;20148;-77
2024/03/08 03:00:59;;;;;;;27.30;10.25;;;1.70;99.90;;;;;;5037805;28;20061;-76
2024/03/08 03:03:27;;;;;;;26.83;10.73;;;1.80;99.90;;;;;;5037508;28;20025;-77
2024/03/08 03:05:55;;;;;;;28.17;10.68;;;1.70;99.90;;;;;;5039303;28;20469;-78
2024/03/08 03:08:23;;;;;;;33.05;10.82;;;;;;;;;;5039287;28;20028;-76
2024/03/08 03:10:49;;;;;;;25.13;10.25;;;1.70;99.90;;;;;;5037100;28;20033;-76
2024/03/08 03:13:15;;;;;;;26.13;9.40;;;1.70;99.90;;;;;;5038260;28;20034;-76
2024/03/08 03:15:44;;;;;;;29.10;11.20;;;3.20;99.90;;;;;;5037102;28;20022;-76
2024/03/08 03:18:10;;;;;;;29.77;10.52;;;1.70;99.90;;;;;;5039151;28;20023;-76
2024/03/08 03:20:44;;;;;;;26.92;9.90;;;1.70;99.90;;;;;;5039374;28;20483;-76
2024/03/08 03:23:13;;;;;;;27.25;10.23;;;1.60;99.90;;;;;;5036571;28;20029;-76
2024/03/08 03:25:40;;;;;;;28.77;11.30;;;1.60;99.90;;;;;;5036888;28;20105;-76
2024/03/08 03:28:07;;;;;;;29.60;11.20;;;1.60;99.90;;;;;;5038487;28;20029;-76
2024/03/08 03:30:33;;;;;;;25.02;10.13;;;1.60;99.90;;;;;;5037038;28;20025;-76
2024/03/08 03:33:06;;;;;;;26.63;10.10;;;1.50;99.90;;;;;;5039131;28;20037;-76
2024/03/08 03:35:32;;;;;;;23.88;10.48;;;1.50;99.90;;;;;;5037936;28;20025;-76
2024/03/08 03:38:07;;;;;;;27.95;10.43;;;1.60;99.90;;;;;;5037803;28;20036;-74
2024/03/08 03:40:40;;;;;;;24.65;10.25;;;1.50;99.90;;;;;;5038182;28;20018;-75
2024/03/08 03:43:05;;;;;;;29.63;11.00;;;1.60;99.90;;;;;;5038627;28;20029;-76
2024/03/08 03:45:34;;;;;;;24.88;10.38;;;1.50;99.90;;;;;;5038104;28;20029;-76
2024/03/08 03:48:07;;;;;;;;;;;1.80;99.90;;;;;;5037914;28;20021;-76
2024/03/08 03:50:35;;;;;;;26.35;9.20;;;1.50;99.90;;;;;;5037479;28;19905;-76
2024/03/08 03:53:02;;;;;;;30.85;10.88;;;1.50;99.90;;;;;;5038082;28;20076;-76
2024/03/08 03:55:28;;;;;;;25.77;10.88;;;1.50;99.90;;;;;;5039503;28;20021;-76
2024/03/08 03:57:54;;;;;;;29.38;10.82;;;1.40;99.90;;;;;;5038693;28;20024;-76
2024/03/08 04:00:20;;;;;;;29.00;10.82;;;1.40;99.90;;;;;;5038936;28;20025;-76
2024/03/08 04:02:46;;;;;;;26.70;10.65;;;1.40;99.90;;;;;;5038597;28;20025;-76
2024/03/08 04:05:13;;;;;;;30.98;10.95;;;1.60;99.90;;;;;;5036887;28;20068;-76
2024/03/08 04:07:39;;;;;;;32.45;10.73;;;1.30;99.90;;;;;;5036900;28;20477;-76
2024/03/08 04:10:11;;;;;;;28.92;10.95;;;1.30;99.90;;;;;;5036532;28;20029;-76
2024/03/08 04:12:37;;;;;;;30.35;11.05;;;1.30;99.90;;;;;;5036589;28;20064;-76
2024/03/08 04:15:07;;;;;;;33.63;11.80;;;1.30;99.90;;;;;;5035305;28;20021;-76
2024/03/08 04:17:37;;;;;;;32.22;10.88;;;1.30;99.90;;;;;;5037827;28;20020;-76
2024/03/08 04:20:09;;;;;;;25.55;10.43;;;1.30;99.90;;;;;;5036377;28;20021;-76
2024/03/08 04:22:36;;;;;;;27.65;10.05;;;1.30;99.90;;;;;;5038522;28;20091;-76
2024/03/08 04:25:03;;;;;;;30.50;10.80;;;1.30;99.90;;;;;;5036499;28;20030;-76
2024/03/08 04:27:29;;;;;;;26.42;10.48;;;1.30;99.90;;;;;;5037092;28;20021;-76
2024/03/08 04:29:54;;;;;;;27.05;10.52;;;1.30;99.90;;;;;;5037176;28;20044;-76
2024/03/08 04:32:20;;;;;;;26.38;10.70;;;1.30;99.90;;;;;;5037549;28;20032;-76
2024/03/08 04:34:45;;;;;;;30.63;11.10;;;1.30;99.90;;;;;;5037514;28;20022;-76
2024/03/08 04:37:13;;;;;;;24.38;10.15;;;1.30;99.90;;;;;;5037338;28;20477;-76
2024/03/08 04:39:39;;;;;;;32.38;11.52;;;1.30;99.90;;;;;;5035918;28;20048;-76
2024/03/08 04:42:09;;;;;;;26.88;11.63;;;1.30;99.90;;;;;;5036053;28;20033;-76
2024/03/08 04:44:36;;;;;;;26.50;10.75;;;1.30;99.90;;;;;;5036188;28;20025;-76
2024/03/08 04:47:01;;;;;;;29.23;12.32;;;1.90;99.90;;;;;;5037323;28;20021;-76
2024/03/08 04:49:28;;;;;;;26.20;10.48;;;1.20;99.90;;;;;;5035799;28;20025;-76
2024/03/08 04:51:53;;;;;;;27.42;11.07;;;1.20;99.90;;;;;;5036392;28;20029;-76
2024/03/08 04:54:19;;;;;;;25.63;10.77;;;1.20;99.90;;;;;;5035579;28;20488;-76
2024/03/08 04:56:45;;;;;;;27.75;11.07;;;1.20;99.90;;;;;;5034620;28;20021;-76
2024/03/08 04:59:11;;;;;;;33.45;12.40;;;1.20;99.90;;;;;;5036855;28;20021;-76
2024/03/08 05:01:37;;;;;;;27.98;10.32;;;1.20;99.90;;;;;;5036061;28;20052;-76
2024/03/08 05:04:03;;;;;;;26.77;10.80;;;1.20;99.90;;;;;;5035347;28;20086;-75
2024/03/08 05:06:30;;;;;;;26.58;10.30;;;1.20;99.90;;;;;;5035776;28;20059;-76
2024/03/08 05:08:56;;;;;;;30.50;11.20;;;1.20;99.90;;;;;;5035192;28;20029;-76
2024/03/08 05:11:21;;;;;;;26.13;11.05;;;1.20;99.90;;;;;;5036440;28;20031;-76
2024/03/08 05:13:47;;;;;;;31.70;10.93;;;1.10;99.90;;;;;;5037001;28;20382;-76
2024/03/08 05:16:15;;;;;;;30.70;11.85;;;1.20;99.90;;;;;;5035360;28;20021;-76
2024/03/08 05:18:42;;;;;;;27.00;11.00;;;1.20;99.90;;;;;;5036975;28;20021;-76
2024/03/08 05:21:09;;;;;;;22.15;10.50;;;1.10;99.90;;;;;;5036787;28;20013;-76
2024/03/08 05:23:35;;;;;;;28.98;10.77;;;1.20;99.90;;;;;;5036021;28;20022;-76
2024/03/08 05:26:00;;;;;;;23.88;10.30;;;1.20;99.90;;;;;;5034708;28;20143;-76
2024/03/08 05:28:26;;;;;;;28.10;11.02;;;1.10;99.90;;;;;;5034165;28;20017;-76
2024/03/08 05:30:52;;;;;;;27.13;10.95;;;1.10;99.90;;;;;;5036800;28;20485;-76
2024/03/08 05:33:19;;;;;;;27.38;10.77;;;1.10;99.90;;;;;;5037162;28;20025;-76
2024/03/08 05:35:44;;;;;;;26.42;10.90;;;1.10;99.90;;;;;;5036036;28;20021;-75
2024/03/08 05:38:12;;;;;;;28.70;10.93;;;1.10;99.90;;;;;;5036893;28;20378;-76
2024/03/08 05:40:38;;;;;;;29.15;11.05;;;1.10;99.90;;;;;;5035252;28;20489;-76
2024/03/08 05:43:03;;;;;;;30.38;11.07;;;1.10;99.90;;;;;;5036449;28;20060;-76
2024/03/08 05:45:29;;;;;;;29.40;11.25;;;1.10;99.90;;;;;;5035503;28;20104;-76
2024/03/08 05:47:55;;;;;;;30.60;11.02;;;1.10;99.90;;;;;;5036027;28;20026;-76
2024/03/08 05:50:20;;;;;;;28.52;11.05;;;1.10;99.90;;;;;;5037064;28;20085;-76
2024/03/08 05:52:47;;;;;;;29.67;12.02;;;1.10;99.90;;;;;;5036167;28;20503;-76
2024/03/08 05:55:14;;;;;;;25.13;10.10;;;1.10;99.90;;;;;;5036770;28;20385;-76
2024/03/08 05:57:42;;;;;;;31.40;11.02;;;1.00;99.90;;;;;;5037994;28;20028;-76
2024/03/08 06:00:08;;;;;;;28.67;11.25;;;1.00;99.90;;;;;;5035386;28;20044;-76
2024/03/08 06:02:33;;;;;;;28.70;10.98;;;1.00;99.90;;;;;;5036464;28;20112;-76
2024/03/08 06:05:01;;;;;;;23.98;10.50;;;1.00;99.90;;;;;;5034715;28;20072;-76
2024/03/08 06:07:27;;;;;;;26.23;11.20;;;1.00;99.90;;;;;;5036168;28;20027;-76
2024/03/08 06:09:53;;;;;;;28.15;11.02;;;1.00;99.90;;;;;;5036308;28;20076;-76
2024/03/08 06:12:19;;;;;;;25.98;10.15;;;1.00;99.90;;;;;;5037988;28;20033;-76
2024/03/08 06:14:45;;;;;;;31.10;10.30;;;1.00;99.90;;;;;;5038468;28;20485;-76
2024/03/08 06:17:11;;;;;;;29.30;11.13;;;0.90;99.90;;;;;;5038943;28;20025;-76
2024/03/08 06:19:37;;;;;;;27.85;11.40;;;1.00;99.90;;;;;;5039320;28;20022;-76
2024/03/08 06:22:05;;;;;;;30.88;11.57;;;1.00;99.90;;;;;;5040914;28;20136;-76
2024/03/08 06:24:31;;;;;;;31.08;11.30;;;1.00;99.90;;;;;;5038538;28;20052;-76
2024/03/08 06:26:57;;;;;;;31.10;11.90;;;1.00;99.90;;;;;;5039453;28;20025;-76
2024/03/08 06:29:23;;;;;;;26.55;11.10;;;1.00;99.90;;;;;;5038880;28;20021;-76
2024/03/08 06:31:49;;;;;;;31.88;11.23;;;1.00;99.90;;;;;;5041029;28;20032;-76
2024/03/08 06:34:15;;;;;;;30.58;11.60;;;1.00;99.90;;;;;;5037729;28;20408;-76
2024/03/08 06:36:41;;;;;;;30.27;12.00;;;1.00;99.90;;;;;;5039184;28;20021;-77
2024/03/08 06:39:09;;;;;;;28.33;11.18;;;1.00;99.90;;;;;;5038196;28;20498;-78
2024/03/08 06:41:36;;;;;;;27.63;11.32;;;1.10;99.90;;;;;;5040386;28;20017;-77
2024/03/08 06:44:01;;;;;;;25.60;10.68;;;1.20;99.90;;;;;;5039824;28;20370;-76
2024/03/08 06:46:28;;;;;;;27.85;10.93;;;1.20;99.90;;;;;;5039544;28;20044;-76
2024/03/08 06:48:53;;;;;;;27.25;11.15;;;1.20;99.90;;;;;;5038270;28;20021;-76
2024/03/08 06:51:19;;;;;;;28.48;11.95;;;1.30;99.90;;;;;;5038807;28;20116;-76
2024/03/08 06:53:45;;;;;;;27.45;11.18;;;1.30;99.90;;;;;;5039138;28;20026;-76
2024/03/08 06:56:11;;;;;;;29.15;11.57;;;1.40;99.90;;;;;;5039492;28;20476;-76
2024/03/08 06:58:37;;;;;;;32.50;11.65;;;1.40;99.90;;;;;;5040170;28;20014;-76
2024/03/08 07:01:07;;;;;;;30.20;11.93;;;1.50;99.90;;;;;;5038002;28;20029;-76
2024/03/08 07:03:32;;;;;;;26.98;11.00;;;1.50;99.90;;;;;;5038817;28;20362;-76
2024/03/08 07:05:58;;;;;;;29.90;12.00;;;1.60;99.90;;;;;;5038574;28;20036;-76
2024/03/08 07:08:24;;;;;;;28.95;10.73;;;1.70;99.90;;;;;;5039023;28;20033;-76
2024/03/08 07:10:50;;;;;;;28.70;11.07;;;1.60;99.90;;;;;;5038854;28;20032;-76
2024/03/08 07:13:16;;;;;;;32.58;11.63;;;1.70;99.90;;;;;;5038287;28;20112;-76
2024/03/08 07:15:43;;;;;;;26.25;10.70;;;1.80;99.90;;;;;;5038479;28;20060;-76
2024/03/08 07:18:14;;;;;;;28.02;11.80;;;;;;;;;;5038694;28;20029;-76
2024/03/08 07:20:39;;;;;;;28.45;11.82;;;1.90;99.90;;;;;;5037011;28;20497;-76
2024/03/08 07:23:05;;;;;;;31.27;11.48;;;2.00;99.90;;;;;;5037721;28;20063;-77
2024/03/08 07:25:30;;;;;;;27.15;11.88;;;2.10;99.90;;;;;;5037646;28;20067;-76
2024/03/08 07:27:56;;;;;;;27.23;10.93;;;2.60;99.90;;;;;;5038042;28;20032;-76
2024/03/08 07:33:11;;;;;;;30.75;11.32;;;2.20;99.90;;;;;;5039859;28;20037;-76
2024/03/08 07:35:37;;;;;;;;;;;2.30;99.90;;;;;;5038720;28;20017;-76
2024/03/08 07:38:06;;;;;;;28.25;10.63;;;2.40;99.90;;;;;;5040001;28;19912;-76
2024/03/08 07:40:40;;;;;;;29.60;11.27;;;2.40;99.90;;;;;;5039729;28;20022;-76
2024/03/08 07:43:07;;;;;;;27.27;12.00;;;2.50;99.90;;;;;;5039424;28;20511;-77
2024/03/08 07:45:32;;;;;;;28.08;10.95;;;3.30;99.90;;;;;;5039680;28;20036;-76
2024/03/08 07:47:58;;;;;;;28.27;11.23;;;2.60;99.90;;;;;;5039918;28;20026;-77
2024/03/08 07:50:26;;;;;;;30.15;11.75;;;;;;;;;;5039382;28;20392;-79
2024/03/08 07:52:53;;;;;;;28.48;11.88;;;;;;;;;;5054866;28;20034;-80
2024/03/08 07:55:19;;;;;;;29.02;11.18;;;2.80;99.90;;;;;;5056765;28;20068;-80
2024/03/08 07:57:47;;;;;;;26.42;11.15;;;;;;;;;;5056183;28;20026;-80
2024/03/08 08:00:17;;;;;;;30.58;11.27;;;;;;;;;;5054371;28;20037;-80
2024/03/08 08:02:49;;;;;;;31.60;12.80;;;;;;;;;;5054246;28;20073;-79
2024/03/08 08:05:18;;;;;;;24.92;10.68;;;3.10;99.90;;;;;;5055987;28;20025;-80
2024/03/08 08:07:47;;;;;;;26.88;11.73;;;;;;;;;;5048704;28;20410;-79
2024/03/08 08:10:18;;;;;;;28.75;11.75;;;;;;;;;;5054987;28;20018;-79
2024/03/08 08:12:46;;;;;;;23.42;10.77;;;;;;;;;;5055377;28;20033;-80
2024/03/08 08:15:12;;;;;;;29.67;11.25;;;;;;;;;;5045372;28;20036;-77
2024/03/08 08:17:38;;;;;;;26.48;11.18;;;3.50;99.90;;;;;;5038013;28;20021;-79
2024/03/08 08:20:05;;;;;;;25.92;11.75;;;3.60;99.90;;;;;;5039304;28;20028;-79
2024/03/08 08:22:31;;;;;;;29.63;12.10;;;3.60;99.90;;;;;;5037688;28;20022;-79
2024/03/08 08:24:56;;;;;;;29.50;11.95;;;3.60;99.90;;;;;;5037188;28;20028;-78
2024/03/08 08:27:22;;;;;;;29.45;11.88;;;3.80;99.90;;;;;;5036122;28;20021;-78
2024/03/08 08:29:49;;;;;;;23.60;9.80;;;3.90;99.90;;;;;;5038560;28;20025;-79
2024/03/08 08:32:15;;;;;;;26.65;10.80;;;3.90;99.90;;;;;;5037234;28;20026;-78
2024/03/08 08:34:42;;;;;;;25.83;11.15;;;4.00;99.90;;;;;;5037020;28;20025;-78
2024/03/08 08:37:09;;;;;;;25.05;11.70;;;4.10;99.90;;;;;;5036544;28;20408;-78
2024/03/08 08:39:35;;;;;;;24.98;11.52;;;4.20;99.90;;;;;;5039289;28;20022;-78
2024/03/08 08:42:02;;;;;;;27.38;10.32;;;4.20;99.90;;;;;;5036480;28;20086;-79
2024/03/08 08:44:28;;;;;;;24.17;10.73;;;5.60;99.90;;;;;;5037014;28;20026;-76
2024/03/08 08:46:53;;;;;;;30.48;11.43;;;4.40;99.90;;;;;;5036336;28;20021;-74
2024/03/08 08:49:20;;;;;;;22.35;9.85;;;4.50;99.90;;;;;;5036227;28;20029;-78
2024/03/08 08:51:50;;;;;;;25.33;10.60;;;4.60;99.90;;;;;;5036367;28;20048;-78
2024/03/08 08:54:16;;;;;;;25.50;10.75;;;4.70;99.90;;;;;;5037639;28;20121;-78
2024/03/08 08:56:47;;;;;;;22.17;10.57;;;4.70;99.90;;;;;;5038584;28;20025;-78
2024/03/08 08:59:19;;;;;;;27.98;10.77;;;4.80;99.90;;;;;;5036145;28;20022;-79
2024/03/08 09:01:47;;;;;;;25.30;10.93;;;7.40;99.90;;;;;;5038264;28;20493;-79
2024/03/08 09:04:12;;;;;;;25.07;11.10;;;5.00;99.90;;;;;;5037003;28;20021;-79
2024/03/08 09:06:41;;;;;;;26.23;11.55;;;5.00;99.90;;;;;;5036394;28;20021;-79
2024/03/08 09:09:09;;;;;;;27.30;10.70;;;5.10;99.90;;;;;;5035500;28;20044;-79
2024/03/08 09:11:34;;;;;;;25.98;11.07;;;5.10;99.90;;;;;;5035729;28;20081;-79
2024/03/08 09:14:01;;;;;;;27.27;11.85;;;5.30;99.90;;;;;;5035116;28;20055;-78
2024/03/08 09:16:27;;;;;;;22.48;10.32;;;5.30;99.90;;;;;;5033687;28;20128;-79
2024/03/08 09:18:53;;;;;;;22.13;10.52;;;5.50;99.90;;;;;;5037386;28;20060;-78
2024/03/08 09:21:18;;;;;;;24.00;10.40;;;7.20;99.90;;;;;;5036980;28;20018;-78
2024/03/08 09:23:45;;;;;;;27.60;11.68;;;5.70;99.90;;;;;;5036229;28;20075;-79
2024/03/08 09:26:12;;;;;;;25.67;10.73;;;5.90;99.90;;;;;;5037850;28;20034;-78
2024/03/08 09:28:38;;;;;;;24.25;10.05;;;6.00;99.90;;;;;;5036232;28;20022;-79
2024/03/08 09:31:05;;;;;;;21.17;10.45;;;6.00;99.90;;;;;;5036364;28;20029;-79
2024/03/08 09:33:31;;;;;;;26.90;10.80;;;;;;;;;;5038617;28;20092;-79
2024/03/08 09:35:57;;;;;;;25.13;11.07;;;6.20;99.90;;;;;;5037157;28;20026;-79
2024/03/08 09:38:24;;;;;;;26.05;10.93;;;6.30;99.90;;;;;;5038533;28;20055;-80
2024/03/08 09:40:51;;;;;;;26.33;11.55;;;6.30;99.90;;;;;;5035901;28;20053;-79
2024/03/08 09:43:18;;;;;;;23.08;10.90;;;6.40;99.90;;;;;;5037353;28;20049;-79
2024/03/08 09:45:46;;;;;;;25.75;10.50;;;6.60;99.90;;;;;;5040827;28;20030;-79
2024/03/08 09:48:13;;;;;;;23.08;10.07;;;6.70;99.90;;;;;;5044744;28;20385;-81
2024/03/08 09:50:41;;;;;;;24.85;10.73;;;6.80;99.90;;;;;;5046575;28;20026;-81
2024/03/08 09:53:10;;;;;;;23.67;10.18;;;6.90;99.90;;;;;;5046957;28;20489;-81
2024/03/08 09:55:36;;;;;;;;;;;6.90;99.90;;;;;;5046874;28;20488;-80
2024/03/08 10:00:57;;;;;;;22.13;10.05;;;7.20;99.90;;;;;;5028366;28;20025;-80
2024/03/08 10:03:23;;;;;;;25.35;9.50;;;7.30;99.90;;;;;;5048828;28;20022;-81
2024/03/08 10:05:49;;;;;;;21.65;9.73;;;7.30;99.90;;;;;;5047761;28;20397;-80
2024/03/08 10:08:15;;;;;;;25.13;10.63;;;7.50;99.90;;;;;;5048396;28;20032;-81
2024/03/08 10:10:41;;;;;;;24.30;9.50;;;7.50;99.90;;;;;;5047168;28;20021;-80
2024/03/08 10:13:07;;;;;;;24.23;10.50;;;7.50;99.90;;;;;;5048447;28;20030;-80
2024/03/08 10:15:35;;;;;;;23.00;9.60;;;7.70;99.90;;;;;;5049881;28;20025;-81
2024/03/08 10:18:04;;;;;;;22.60;9.73;;;7.80;99.90;;;;;;5047873;28;20392;-81
2024/03/08 10:20:34;;;;;;;21.77;9.43;;;7.90;99.90;;;;;;5047604;28;20088;-80
2024/03/08 10:23:00;;;;;;;21.52;9.73;;;7.90;99.90;;;;;;5049048;28;20377;-82
2024/03/08 10:25:26;;;;;;;20.17;8.70;;;8.00;99.90;;;;;;5046832;28;20025;-81
2024/03/08 10:27:52;;;;;;;22.73;9.82;;;8.00;99.90;;;;;;5047224;28;20032;-81
2024/03/08 10:30:19;;;;;;;21.10;8.73;;;8.20;99.90;;;;;;5044106;28;20026;-80
2024/03/08 10:32:46;;;;;;;22.13;9.80;;;8.30;99.90;;;;;;5043974;28;20022;-83
2024/03/08 10:35:12;;;;;;;20.92;8.95;;;8.50;99.90;;;;;;5045649;28;20028;-83
2024/03/08 10:38:01;;;;;;;18.20;8.65;;;8.70;99.90;;;;;;5046294;28;20052;-79
2024/03/08 10:40:27;;;;;;;20.38;8.90;;;8.70;99.90;;;;;;5046889;28;20040;-81
2024/03/08 10:42:54;;;;;;;18.77;8.98;;;8.80;99.90;;;;;;5044336;28;20028;-82
2024/03/08 10:45:43;;;;;;;18.08;9.02;;;8.80;99.90;;;;;;5045000;28;20057;-81
2024/03/08 10:48:27;;;;;;;21.60;9.07;;;8.90;99.90;;;;;;5046311;28;20053;-80
2024/03/08 10:50:55;;;;;;;22.60;8.70;;;9.00;99.90;;;;;;5047574;28;20025;-81
2024/03/08 10:53:24;;;;;;;19.58;8.82;;;9.00;99.90;;;;;;5045946;28;20436;-80
2024/03/08 10:55:53;;;;;;;19.50;8.80;;;9.20;99.90;;;;;;5044991;28;20021;-80
2024/03/08 10:58:21;;;;;;;21.83;8.90;;;9.30;99.90;;;;;;5046505;28;20018;-80
2024/03/08 11:00:53;;;;;;;17.60;8.35;;;9.40;99.90;;;;;;5046092;28;20032;-80
2024/03/08 11:03:41;;;;;;;17.70;8.02;;;9.50;99.90;;;;;;5044943;28;20030;-80
2024/03/08 11:06:29;;;;;;;19.60;8.82;;;9.50;99.90;;;;;;5046003;28;20060;-80
2024/03/08 11:08:55;;;;;;;16.25;7.35;;;;;;;;;;5037147;28;20512;-81
2024/03/08 11:11:34;;;;;;;18.17;7.28;;;9.90;99.90;;;;;;5044123;28;20125;-81
2024/03/08 11:14:01;;;;;;;19.92;8.23;;;9.90;99.90;;;;;;5043092;28;20053;-81
2024/03/08 11:16:27;;;;;;;17.83;8.02;;;10.00;99.90;;;;;;5045449;28;20104;-80
2024/03/08 11:19:11;;;;;;;17.35;7.70;;;10.30;99.90;;;;;;5044014;28;20068;-80
2024/03/08 11:21:39;;;;;;;20.65;7.07;;;10.50;99.90;;;;;;5043948;28;20053;-81
2024/03/08 11:24:11;;;;;;;18.05;7.07;;;10.50;99.90;;;;;;5043332;28;20026;-81
2024/03/08 11:26:38;;;;;;;17.63;7.93;;;10.60;99.90;;;;;;5043574;28;20056;-81
2024/03/08 11:29:35;;;;;;;16.48;7.13;;;10.60;99.90;;;;;;5043568;28;20052;-81
2024/03/08 11:32:12;;;;;;;17.40;7.68;;;10.70;99.90;;;;;;5043768;28;20037;-81
2024/03/08 11:34:43;;;;;;;18.13;8.25;;;10.70;99.90;;;;;;5046116;28;20052;-80
2024/03/08 11:37:20;;;;;;;19.20;8.45;;;10.80;99.90;;;;;;5043203;28;20060;-81
2024/03/08 11:40:04;;;;;;;18.52;8.38;;;10.90;99.90;;;;;;5043548;28;20025;-81
2024/03/08 11:42:30;;;;;;;18.80;7.78;;;11.10;99.90;;;;;;5044723;28;20044;-80
2024/03/08 11:44:56;;;;;;;14.45;6.72;;;11.20;99.90;;;;;;5045071;28;20520;-80
2024/03/08 11:47:22;;;;;;;13.95;6.32;;;11.30;99.90;;;;;;5044378;28;20563;-80
2024/03/08 11:49:48;;;;;;;15.73;7.20;;;11.40;99.90;;;;;;5044180;28;20044;-81
2024/03/08 11:52:18;;;;;;;16.50;7.78;;;11.50;99.90;;;;;;5044498;28;20021;-80
2024/03/08 11:54:56;;;;;;;13.88;6.75;;;11.50;99.90;;;;;;5044796;28;20061;-81
2024/03/08 11:57:23;;;;;;;;;;;11.70;99.90;;;;;;5043388;28;20025;-81
2024/03/08 12:00:06;;;;;;;17.33;7.03;;;11.70;99.90;;;;;;5042783;28;20288;-81
2024/03/08 12:02:37;;;;;;;14.30;6.53;;;11.70;99.70;;;;;;5043113;28;20032;-81
2024/03/08 12:05:06;;;;;;;14.38;6.38;;;11.80;99.60;;;;;;5042562;28;20022;-81
2024/03/08 12:07:35;;;;;;;11.75;5.85;;;12.00;99.90;;;;;;5043778;28;20080;-80
2024/03/08 12:10:19;;;;;;;;;;;12.20;99.50;;;;;;5043409;28;20014;-81
2024/03/08 12:12:47;;;;;;;12.32;5.80;;;12.30;98.60;;;;;;5038807;28;19971;-78
2024/03/08 12:15:15;;;;;;;13.73;5.90;;;12.40;97.30;;;;;;5037233;28;20017;-78
2024/03/08 12:17:42;;;;;;;13.30;5.55;;;12.50;96.90;;;;;;5036946;28;20017;-78
2024/03/08 12:20:12;;;;;;;11.23;4.97;;;12.60;96.70;;;;;;5036771;28;20028;-78
2024/03/08 12:22:45;;;;;;;10.65;5.53;;;12.80;97.20;;;;;;5038188;28;20017;-78
2024/03/08 12:25:12;;;;;;;11.65;5.88;;;12.90;96.10;;;;;;5039263;28;20441;-78
2024/03/08 12:27:42;;;;;;;11.73;5.05;;;13.00;94.90;;;;;;5036346;28;20025;-78
2024/03/08 12:30:20;;;;;;;11.38;5.25;;;13.00;94.40;;;;;;5038863;28;20024;-78
2024/03/08 12:32:53;;;;;;;12.77;4.82;;;13.00;95.20;;;;;;5035852;28;20017;-78
2024/03/08 12:35:21;;;;;;;9.75;4.97;;;13.10;94.40;;;;;;5036387;28;20435;-78
2024/03/08 12:37:49;;;;;;;;;;;13.20;94.60;;;;;;5037344;28;20041;-78
2024/03/08 12:40:16;;;;;;;12.68;4.93;;;13.20;93.80;;;;;;5036126;28;19916;-78
2024/03/08 12:42:49;;;;;;;13.57;5.38;;;13.40;94.00;;;;;;5027858;28;20042;-78
2024/03/08 12:45:15;;;;;;;15.82;5.95;;;13.40;93.90;;;;;;5018267;28;20038;-78
2024/03/08 12:47:45;;;;;;;12.32;5.65;;;13.30;93.40;;;;;;5016266;28;20385;-78
2024/03/08 12:50:16;;;;;;;13.55;5.85;;;13.40;93.30;;;;;;5018070;28;20029;-78
2024/03/08 12:52:42;;;;;;;14.70;5.43;;;13.40;94.00;;;;;;5016987;28;20030;-78